createdAt,value
2017-03-27T00:00:32.248Z,0
2017-03-27T00:01:41.770Z,0
2017-03-27T00:02:50.344Z,0
2017-03-27T00:03:59.237Z,0
2017-03-27T00:05:08.123Z,0
2017-03-27T00:06:16.697Z,0
2017-03-27T00:07:26.213Z,0
2017-03-27T00:08:34.781Z,0
2017-03-27T00:09:43.353Z,0
2017-03-27T00:10:52.241Z,0
2017-03-27T00:12:01.127Z,0
2017-03-27T00:13:10.332Z,0
2017-03-27T00:14:19.542Z,0
2017-03-27T00:15:28.430Z,0
2017-03-27T00:16:37.336Z,0
2017-03-27T00:17:46.685Z,0
2017-03-27T00:18:56.024Z,0
2017-03-27T00:20:05.991Z,0
2017-03-27T00:21:15.852Z,0
2017-03-27T00:22:25.193Z,0
2017-03-27T00:23:34.654Z,0
2017-03-27T00:24:43.996Z,0
2017-03-27T00:25:52.586Z,0
2017-03-27T00:27:01.178Z,0
2017-03-27T00:28:10.491Z,0
2017-03-27T00:29:20.014Z,0
2017-03-27T00:30:28.589Z,0
2017-03-27T00:31:37.154Z,0
2017-03-27T00:32:46.365Z,0
2017-03-27T00:33:55.295Z,0
2017-03-27T00:35:03.866Z,0
2017-03-27T00:36:12.463Z,0
2017-03-27T00:37:21.980Z,0
2017-03-27T00:38:31.128Z,0
2017-03-27T00:39:40.015Z,0
2017-03-27T00:40:48.914Z,0
2017-03-27T00:41:57.797Z,0
2017-03-27T00:43:06.376Z,0
2017-03-27T00:44:15.585Z,0
2017-03-27T00:45:24.155Z,0
2017-03-27T00:46:33.353Z,0
2017-03-27T00:47:42.559Z,0
2017-03-27T00:48:51.137Z,0
2017-03-27T00:50:00.027Z,0
2017-03-27T00:51:08.916Z,0
2017-03-27T00:52:17.487Z,0
2017-03-27T00:53:26.690Z,0
2017-03-27T00:54:35.895Z,0
2017-03-27T00:55:44.789Z,0
2017-03-27T00:56:54.445Z,0
2017-03-27T00:58:03.021Z,0
2017-03-27T00:59:11.973Z,0
2017-03-27T01:00:20.864Z,0
2017-03-27T01:01:29.431Z,0
2017-03-27T01:02:38.004Z,0
2017-03-27T01:03:47.526Z,0
2017-03-27T01:04:56.416Z,0
2017-03-27T01:06:05.615Z,0
2017-03-27T01:07:14.495Z,0
2017-03-27T01:08:23.103Z,0
2017-03-27T01:09:32.318Z,0
2017-03-27T01:10:40.938Z,0
2017-03-27T01:11:49.825Z,0
2017-03-27T01:12:58.754Z,0
2017-03-27T01:14:07.639Z,0
2017-03-27T01:15:16.212Z,0
2017-03-27T01:16:24.785Z,0
2017-03-27T01:17:33.356Z,0
2017-03-27T01:18:42.257Z,0
2017-03-27T01:19:51.151Z,0
2017-03-27T01:21:00.539Z,0
2017-03-27T01:22:09.111Z,0
2017-03-27T01:23:17.695Z,0
2017-03-27T01:24:26.928Z,0
2017-03-27T01:25:36.547Z,0
2017-03-27T01:26:45.744Z,0
2017-03-27T01:27:54.632Z,0
2017-03-27T01:29:03.531Z,0
2017-03-27T01:30:12.419Z,0
2017-03-27T01:31:20.996Z,0
2017-03-27T01:32:30.197Z,0
2017-03-27T01:33:38.766Z,0
2017-03-27T01:34:48.284Z,0
2017-03-27T01:35:57.170Z,0
2017-03-27T01:37:06.692Z,0
2017-03-27T01:38:15.897Z,0
2017-03-27T01:39:25.103Z,0
2017-03-27T01:40:34.305Z,0
2017-03-27T01:41:42.872Z,0
2017-03-27T01:42:51.443Z,0
2017-03-27T01:44:00.333Z,0
2017-03-27T01:45:09.220Z,0
2017-03-27T01:46:18.108Z,0
2017-03-27T01:47:26.681Z,0
2017-03-27T01:48:35.250Z,0
2017-03-27T01:49:44.146Z,0
2017-03-27T01:50:53.033Z,0
2017-03-27T01:52:01.919Z,0
2017-03-27T01:53:10.805Z,0
2017-03-27T01:54:19.692Z,0
2017-03-27T01:55:28.262Z,0
2017-03-27T01:56:37.463Z,0
2017-03-27T01:57:46.357Z,0
2017-03-27T01:58:55.243Z,0
2017-03-27T02:00:03.824Z,0
2017-03-27T02:01:13.041Z,0
2017-03-27T02:02:22.240Z,0
2017-03-27T02:03:31.494Z,0
2017-03-27T02:04:40.063Z,0
2017-03-27T02:05:49.260Z,0
2017-03-27T02:06:58.145Z,0
2017-03-27T02:08:07.032Z,0
2017-03-27T02:09:15.614Z,0
2017-03-27T02:10:24.181Z,0
2017-03-27T02:11:32.748Z,0
2017-03-27T02:12:41.635Z,0
2017-03-27T02:13:50.522Z,0
2017-03-27T02:14:59.407Z,0
2017-03-27T02:16:08.292Z,0
2017-03-27T02:17:17.177Z,0
2017-03-27T02:18:26.073Z,0
2017-03-27T02:19:34.642Z,0
2017-03-27T02:20:44.158Z,0
2017-03-27T02:21:53.361Z,0
2017-03-27T02:23:02.249Z,0
2017-03-27T02:24:10.821Z,0
2017-03-27T02:25:19.701Z,0
2017-03-27T02:26:28.898Z,0
2017-03-27T02:27:37.783Z,0
2017-03-27T02:28:46.991Z,0
2017-03-27T02:29:55.880Z,0
2017-03-27T02:31:04.764Z,0
2017-03-27T02:32:13.338Z,0
2017-03-27T02:33:22.220Z,0
2017-03-27T02:34:31.426Z,0
2017-03-27T02:35:40.314Z,0
2017-03-27T02:36:49.196Z,0
2017-03-27T02:37:58.086Z,0
2017-03-27T02:39:06.656Z,0
2017-03-27T02:40:15.542Z,0
2017-03-27T02:41:24.749Z,0
2017-03-27T02:42:34.271Z,0
2017-03-27T02:43:42.849Z,0
2017-03-27T02:44:52.379Z,0
2017-03-27T02:46:01.583Z,0
2017-03-27T02:47:10.782Z,0
2017-03-27T02:48:19.356Z,0
2017-03-27T02:49:28.560Z,0
2017-03-27T02:50:37.759Z,0
2017-03-27T02:51:46.325Z,0
2017-03-27T02:52:55.211Z,0
2017-03-27T02:54:03.784Z,0
2017-03-27T02:55:12.985Z,0
2017-03-27T02:56:21.553Z,0
2017-03-27T02:57:30.436Z,0
2017-03-27T02:58:39.629Z,0
2017-03-27T02:59:48.834Z,0
2017-03-27T03:00:57.402Z,0
2017-03-27T03:02:05.978Z,0
2017-03-27T03:03:14.868Z,0
2017-03-27T03:04:23.755Z,0
2017-03-27T03:05:32.959Z,0
2017-03-27T03:06:41.858Z,0
2017-03-27T03:07:51.065Z,0
2017-03-27T03:09:00.155Z,0
2017-03-27T03:10:09.038Z,0
2017-03-27T03:11:17.922Z,0
2017-03-27T03:12:26.496Z,0
2017-03-27T03:13:35.725Z,0
2017-03-27T03:14:44.928Z,0
2017-03-27T03:15:53.817Z,0
2017-03-27T03:17:03.021Z,0
2017-03-27T03:18:11.916Z,0
2017-03-27T03:19:20.811Z,0
2017-03-27T03:20:29.696Z,0
2017-03-27T03:21:38.264Z,0
2017-03-27T03:22:47.154Z,0
2017-03-27T03:23:56.050Z,0
2017-03-27T03:25:04.940Z,0
2017-03-27T03:26:13.508Z,0
2017-03-27T03:27:22.398Z,0
2017-03-27T03:28:31.602Z,0
2017-03-27T03:29:40.485Z,0
2017-03-27T03:30:49.051Z,0
2017-03-27T03:31:57.932Z,0
2017-03-27T03:33:07.460Z,0
2017-03-27T03:34:16.043Z,0
2017-03-27T03:35:24.614Z,0
2017-03-27T03:36:33.179Z,0
2017-03-27T03:37:42.065Z,0
2017-03-27T03:38:51.270Z,0
2017-03-27T03:39:59.850Z,0
2017-03-27T03:41:08.733Z,0
2017-03-27T03:42:17.614Z,0
2017-03-27T03:43:26.187Z,0
2017-03-27T03:44:35.077Z,0
2017-03-27T03:45:43.657Z,0
2017-03-27T03:46:52.234Z,0
2017-03-27T03:48:01.125Z,0
2017-03-27T03:49:09.700Z,0
2017-03-27T03:50:18.266Z,0
2017-03-27T03:51:26.834Z,0
2017-03-27T03:52:36.349Z,0
2017-03-27T03:53:45.557Z,0
2017-03-27T03:54:54.774Z,0
2017-03-27T03:56:03.662Z,0
2017-03-27T03:57:13.769Z,0
2017-03-27T03:58:23.281Z,0
2017-03-27T03:59:32.548Z,0
2017-03-27T04:00:41.760Z,0
2017-03-27T04:01:50.646Z,0
2017-03-27T04:02:59.221Z,0
2017-03-27T04:04:08.114Z,0
2017-03-27T04:05:17.315Z,0
2017-03-27T04:06:26.322Z,0
2017-03-27T04:07:34.894Z,0
2017-03-27T04:08:44.106Z,0
2017-03-27T04:09:53.387Z,0
2017-03-27T04:11:02.584Z,0
2017-03-27T04:12:11.837Z,0
2017-03-27T04:13:20.418Z,0
2017-03-27T04:14:29.648Z,0
2017-03-27T04:15:38.570Z,0
2017-03-27T04:16:47.186Z,0
2017-03-27T04:17:55.816Z,0
2017-03-27T04:19:04.739Z,0
2017-03-27T04:20:13.305Z,0
2017-03-27T04:21:22.500Z,0
2017-03-27T04:22:31.389Z,0
2017-03-27T04:23:39.963Z,0
2017-03-27T04:24:48.847Z,0
2017-03-27T04:25:57.444Z,0
2017-03-27T04:27:06.652Z,0
2017-03-27T04:28:15.861Z,0
2017-03-27T04:29:25.381Z,0
2017-03-27T04:30:34.270Z,0
2017-03-27T04:31:43.158Z,0
2017-03-27T04:32:52.045Z,0
2017-03-27T04:34:00.999Z,0
2017-03-27T04:35:09.883Z,0
2017-03-27T04:36:18.457Z,0
2017-03-27T04:37:27.340Z,0
2017-03-27T04:38:36.229Z,0
2017-03-27T04:39:45.434Z,0
2017-03-27T04:40:54.000Z,0
2017-03-27T04:42:02.567Z,0
2017-03-27T04:43:11.765Z,0
2017-03-27T04:44:20.977Z,0
2017-03-27T04:45:29.862Z,0
2017-03-27T04:46:38.432Z,0
2017-03-27T04:47:47.006Z,0
2017-03-27T04:48:55.895Z,0
2017-03-27T04:50:04.799Z,0
2017-03-27T04:51:13.688Z,0
2017-03-27T04:52:23.220Z,0
2017-03-27T04:53:32.976Z,0
2017-03-27T04:54:42.206Z,0
2017-03-27T04:55:51.409Z,0
2017-03-27T04:57:00.296Z,0
2017-03-27T04:58:08.862Z,0
2017-03-27T04:59:17.467Z,0
2017-03-27T05:00:26.031Z,0
2017-03-27T05:01:34.915Z,0
2017-03-27T05:02:43.485Z,0
2017-03-27T05:03:52.374Z,0
2017-03-27T05:05:01.271Z,0
2017-03-27T05:06:10.474Z,0
2017-03-27T05:07:19.063Z,0
2017-03-27T05:08:27.669Z,0
2017-03-27T05:09:36.876Z,0
2017-03-27T05:10:46.072Z,0
2017-03-27T05:11:55.605Z,0
2017-03-27T05:13:04.507Z,5
2017-03-27T05:14:13.394Z,5
2017-03-27T05:15:21.959Z,5
2017-03-27T05:16:30.523Z,5
2017-03-27T05:17:39.726Z,5
2017-03-27T05:18:48.624Z,5
2017-03-27T05:19:57.514Z,5
2017-03-27T05:21:06.440Z,10
2017-03-27T05:22:15.325Z,10
2017-03-27T05:23:24.223Z,10
2017-03-27T05:24:32.847Z,10
2017-03-27T05:25:41.433Z,15
2017-03-27T05:26:50.014Z,15
2017-03-27T05:27:58.905Z,15
2017-03-27T05:29:08.419Z,15
2017-03-27T05:30:17.621Z,20
2017-03-27T05:31:26.517Z,20
2017-03-27T05:32:35.083Z,20
2017-03-27T05:33:44.283Z,25
2017-03-27T05:34:52.853Z,25
2017-03-27T05:36:01.738Z,25
2017-03-27T05:37:10.659Z,30
2017-03-27T05:38:19.285Z,30
2017-03-27T05:39:28.169Z,30
2017-03-27T05:40:37.063Z,35
2017-03-27T05:41:45.944Z,35
2017-03-27T05:42:54.526Z,35
2017-03-27T05:44:03.418Z,40
2017-03-27T05:45:11.988Z,40
2017-03-27T05:46:20.872Z,40
2017-03-27T05:47:29.763Z,40
2017-03-27T05:48:39.317Z,45
2017-03-27T05:49:48.167Z,45
2017-03-27T05:50:56.738Z,45
2017-03-27T05:52:06.258Z,50
2017-03-27T05:53:15.464Z,50
2017-03-27T05:54:24.348Z,50
2017-03-27T05:55:33.547Z,55
2017-03-27T05:56:42.441Z,55
2017-03-27T05:57:51.324Z,55
2017-03-27T05:58:59.898Z,60
2017-03-27T06:00:08.786Z,60
2017-03-27T06:01:17.354Z,60
2017-03-27T06:02:26.248Z,60
2017-03-27T06:03:34.825Z,65
2017-03-27T06:04:43.707Z,65
2017-03-27T06:05:52.592Z,65
2017-03-27T06:07:01.481Z,65
2017-03-27T06:08:10.366Z,65
2017-03-27T06:09:19.251Z,65
2017-03-27T06:10:28.765Z,70
2017-03-27T06:11:37.651Z,70
2017-03-27T06:12:46.230Z,75
2017-03-27T06:13:55.435Z,75
2017-03-27T06:15:04.639Z,75
2017-03-27T06:16:13.203Z,80
2017-03-27T06:17:22.088Z,80
2017-03-27T06:18:30.975Z,80
2017-03-27T06:19:39.880Z,85
2017-03-27T06:20:49.396Z,85
2017-03-27T06:21:58.279Z,85
2017-03-27T06:23:07.562Z,90
2017-03-27T06:24:16.468Z,90
2017-03-27T06:25:25.105Z,90
2017-03-27T06:26:34.042Z,90
2017-03-27T06:27:42.616Z,90
2017-03-27T06:28:51.266Z,95
2017-03-27T06:30:00.150Z,95
2017-03-27T06:31:09.067Z,95
2017-03-27T06:32:18.247Z,95
2017-03-27T06:33:26.892Z,100
2017-03-27T06:34:36.008Z,100
2017-03-27T06:35:44.576Z,100
2017-03-27T06:36:53.363Z,100
2017-03-27T06:38:02.305Z,100
2017-03-27T06:39:11.196Z,100
2017-03-27T06:40:20.178Z,100
2017-03-27T06:41:29.583Z,100
2017-03-27T06:42:39.143Z,100
2017-03-27T06:43:47.718Z,105
2017-03-27T06:44:56.991Z,105
2017-03-27T06:46:05.883Z,105
2017-03-27T06:47:15.403Z,105
2017-03-27T06:48:23.979Z,105
2017-03-27T06:49:33.205Z,105
2017-03-27T06:50:41.769Z,105
2017-03-27T06:51:51.590Z,105
2017-03-27T06:53:00.491Z,105
2017-03-27T06:54:09.210Z,105
2017-03-27T06:55:18.098Z,105
2017-03-27T06:56:26.679Z,105
2017-03-27T06:57:35.568Z,110
2017-03-27T06:58:45.091Z,110
2017-03-27T06:59:53.694Z,110
2017-03-27T07:01:02.584Z,110
2017-03-27T07:02:11.514Z,110
2017-03-27T07:03:20.742Z,110
2017-03-27T07:04:29.312Z,110
2017-03-27T07:05:38.206Z,110
2017-03-27T07:06:47.410Z,110
2017-03-27T07:07:56.617Z,115
2017-03-27T07:09:05.503Z,115
2017-03-27T07:10:14.709Z,115
2017-03-27T07:11:23.600Z,115
2017-03-27T07:12:32.501Z,120
2017-03-27T07:13:41.410Z,115
2017-03-27T07:14:50.631Z,115
2017-03-27T07:15:59.218Z,115
2017-03-27T07:17:07.793Z,115
2017-03-27T07:18:16.385Z,115
2017-03-27T07:19:25.290Z,120
2017-03-27T07:20:34.497Z,120
2017-03-27T07:21:43.383Z,120
2017-03-27T07:22:52.273Z,120
2017-03-27T07:24:00.846Z,120
2017-03-27T07:25:09.753Z,120
2017-03-27T07:26:18.636Z,120
2017-03-27T07:27:27.519Z,120
2017-03-27T07:28:36.403Z,120
2017-03-27T07:29:45.295Z,120
2017-03-27T07:30:53.865Z,125
2017-03-27T07:32:02.757Z,125
2017-03-27T07:33:11.650Z,120
2017-03-27T07:34:20.860Z,120
2017-03-27T07:35:29.744Z,120
2017-03-27T07:36:38.634Z,125
2017-03-27T07:37:47.529Z,125
2017-03-27T07:38:59.000Z,125
2017-03-27T07:40:08.516Z,125
2017-03-27T07:41:17.089Z,125
2017-03-27T07:42:25.973Z,125
2017-03-27T07:43:35.498Z,130
2017-03-27T07:44:44.070Z,130
2017-03-27T07:45:52.956Z,130
2017-03-27T07:47:02.305Z,130
2017-03-27T07:48:11.237Z,130
2017-03-27T07:49:20.131Z,130
2017-03-27T07:50:29.329Z,130
2017-03-27T07:51:38.544Z,130
2017-03-27T07:52:47.754Z,130
2017-03-27T07:53:56.962Z,130
2017-03-27T07:55:05.876Z,135
2017-03-27T07:56:14.763Z,135
2017-03-27T07:57:23.903Z,135
2017-03-27T07:58:32.803Z,135
2017-03-27T07:59:42.012Z,135
2017-03-27T08:00:50.589Z,135
2017-03-27T08:01:59.843Z,135
2017-03-27T08:03:09.369Z,135
2017-03-27T08:04:17.969Z,135
2017-03-27T08:05:27.172Z,135
2017-03-27T08:06:36.067Z,135
2017-03-27T08:07:45.296Z,135
2017-03-27T08:08:53.884Z,135
2017-03-27T08:10:02.579Z,135
2017-03-27T08:11:11.497Z,135
2017-03-27T08:12:20.248Z,135
2017-03-27T08:13:29.427Z,135
2017-03-27T08:14:38.343Z,135
2017-03-27T08:15:47.351Z,135
2017-03-27T08:16:56.108Z,135
2017-03-27T08:18:04.682Z,135
2017-03-27T08:19:13.581Z,135
2017-03-27T08:20:22.797Z,135
2017-03-27T08:21:31.378Z,135
2017-03-27T08:22:40.277Z,140
2017-03-27T08:23:49.482Z,140
2017-03-27T08:24:58.694Z,140
2017-03-27T08:26:07.906Z,140
2017-03-27T08:27:16.478Z,140
2017-03-27T08:28:25.691Z,140
2017-03-27T08:29:34.968Z,140
2017-03-27T08:30:43.632Z,140
2017-03-27T08:31:52.522Z,140
2017-03-27T08:33:01.106Z,140
2017-03-27T08:34:10.423Z,140
2017-03-27T08:35:19.002Z,140
2017-03-27T08:36:28.221Z,140
2017-03-27T08:37:36.808Z,140
2017-03-27T08:38:45.980Z,140
2017-03-27T08:39:55.200Z,140
2017-03-27T08:41:03.776Z,140
2017-03-27T08:42:12.359Z,140
2017-03-27T08:43:20.941Z,140
2017-03-27T08:44:29.522Z,140
2017-03-27T08:45:38.903Z,140
2017-03-27T08:46:47.825Z,140
2017-03-27T08:47:56.725Z,140
2017-03-27T08:49:05.314Z,145
2017-03-27T08:50:13.933Z,140
2017-03-27T08:51:23.076Z,140
2017-03-27T08:52:31.989Z,140
2017-03-27T08:53:40.598Z,140
2017-03-27T08:54:49.215Z,145
2017-03-27T08:55:58.060Z,145
2017-03-27T08:57:06.673Z,145
2017-03-27T08:58:15.565Z,140
2017-03-27T08:59:24.458Z,140
2017-03-27T09:00:33.663Z,140
2017-03-27T09:01:42.554Z,140
2017-03-27T09:02:52.624Z,140
2017-03-27T09:04:01.852Z,145
2017-03-27T09:05:10.740Z,145
2017-03-27T09:06:20.158Z,145
2017-03-27T09:07:28.731Z,145
2017-03-27T09:08:38.258Z,145
2017-03-27T09:09:47.153Z,145
2017-03-27T09:10:56.044Z,145
2017-03-27T09:12:04.935Z,145
2017-03-27T09:13:13.508Z,145
2017-03-27T09:14:22.714Z,145
2017-03-27T09:15:31.932Z,145
2017-03-27T09:16:41.140Z,145
2017-03-27T09:17:49.715Z,145
2017-03-27T09:18:58.925Z,145
2017-03-27T09:20:07.517Z,145
2017-03-27T09:21:16.416Z,145
2017-03-27T09:22:24.993Z,145
2017-03-27T09:23:33.897Z,145
2017-03-27T09:24:43.443Z,145
2017-03-27T09:25:52.018Z,145
2017-03-27T09:27:01.222Z,150
2017-03-27T09:28:10.746Z,145
2017-03-27T09:29:19.636Z,140
2017-03-27T09:30:28.838Z,145
2017-03-27T09:31:37.737Z,140
2017-03-27T09:32:46.638Z,140
2017-03-27T09:33:55.529Z,140
2017-03-27T09:35:04.417Z,140
2017-03-27T09:36:12.990Z,140
2017-03-27T09:37:21.906Z,140
2017-03-27T09:38:30.800Z,140
2017-03-27T09:39:39.696Z,140
2017-03-27T09:40:48.605Z,140
2017-03-27T09:41:57.507Z,140
2017-03-27T09:43:06.400Z,140
2017-03-27T09:44:15.289Z,140
2017-03-27T09:45:23.864Z,140
2017-03-27T09:46:32.751Z,140
2017-03-27T09:47:41.322Z,140
2017-03-27T09:48:50.527Z,140
2017-03-27T09:49:59.479Z,140
2017-03-27T09:51:08.695Z,140
2017-03-27T09:52:17.903Z,140
2017-03-27T09:53:27.113Z,145
2017-03-27T09:54:36.018Z,145
2017-03-27T09:55:44.907Z,145
2017-03-27T09:56:54.110Z,145
2017-03-27T09:58:02.999Z,145
2017-03-27T09:59:11.895Z,145
2017-03-27T10:00:21.105Z,145
2017-03-27T10:01:30.308Z,145
2017-03-27T10:02:38.886Z,145
2017-03-27T10:03:47.473Z,145
2017-03-27T10:04:56.694Z,145
2017-03-27T10:06:05.928Z,145
2017-03-27T10:07:15.143Z,145
2017-03-27T10:08:23.761Z,145
2017-03-27T10:09:33.009Z,145
2017-03-27T10:10:41.613Z,150
2017-03-27T10:11:50.931Z,150
2017-03-27T10:12:59.827Z,150
2017-03-27T10:14:08.504Z,150
2017-03-27T10:15:17.707Z,150
2017-03-27T10:16:26.593Z,150
2017-03-27T10:17:35.489Z,150
2017-03-27T10:18:44.377Z,150
2017-03-27T10:19:53.590Z,150
2017-03-27T10:21:02.165Z,150
2017-03-27T10:22:11.065Z,150
2017-03-27T10:23:20.218Z,150
2017-03-27T10:24:28.804Z,155
2017-03-27T10:25:37.397Z,155
2017-03-27T10:26:46.605Z,155
2017-03-27T10:27:55.193Z,155
2017-03-27T10:29:04.089Z,155
2017-03-27T10:30:12.663Z,155
2017-03-27T10:31:21.555Z,155
2017-03-27T10:32:30.129Z,155
2017-03-27T10:33:39.277Z,155
2017-03-27T10:34:48.517Z,155
2017-03-27T10:35:57.410Z,155
2017-03-27T10:37:05.984Z,155
2017-03-27T10:38:14.883Z,155
2017-03-27T10:39:23.776Z,155
2017-03-27T10:40:32.349Z,155
2017-03-27T10:41:41.877Z,155
2017-03-27T10:42:50.456Z,155
2017-03-27T10:43:59.239Z,155
2017-03-27T10:45:11.086Z,155
2017-03-27T10:46:20.294Z,165
2017-03-27T10:47:28.881Z,165
2017-03-27T10:48:37.464Z,165
2017-03-27T10:49:46.039Z,165
2017-03-27T10:50:54.984Z,165
2017-03-27T10:52:03.568Z,165
2017-03-27T10:53:12.461Z,165
2017-03-27T10:54:21.990Z,165
2017-03-27T10:55:30.879Z,165
2017-03-27T10:56:39.465Z,165
2017-03-27T10:57:48.358Z,165
2017-03-27T10:58:57.251Z,165
2017-03-27T11:00:05.981Z,165
2017-03-27T11:01:14.876Z,155
2017-03-27T11:02:23.766Z,155
2017-03-27T11:03:32.980Z,155
2017-03-27T11:04:42.203Z,155
2017-03-27T11:05:51.102Z,155
2017-03-27T11:06:59.987Z,155
2017-03-27T11:08:08.561Z,155
2017-03-27T11:09:17.141Z,155
2017-03-27T11:10:25.718Z,155
2017-03-27T11:11:34.922Z,155
2017-03-27T11:12:43.819Z,155
2017-03-27T11:13:52.723Z,155
2017-03-27T11:15:01.957Z,155
2017-03-27T11:16:10.855Z,155
2017-03-27T11:17:20.067Z,155
2017-03-27T11:18:29.271Z,155
2017-03-27T11:19:38.800Z,155
2017-03-27T11:20:47.705Z,155
2017-03-27T11:21:56.930Z,155
2017-03-27T11:23:05.513Z,155
2017-03-27T11:24:15.069Z,155
2017-03-27T11:25:24.282Z,155
2017-03-27T11:26:33.237Z,155
2017-03-27T11:27:42.159Z,155
2017-03-27T11:28:51.420Z,155
2017-03-27T11:30:00.377Z,155
2017-03-27T11:31:09.825Z,155
2017-03-27T11:32:20.243Z,155
2017-03-27T11:33:29.266Z,155
2017-03-27T11:34:38.008Z,160
2017-03-27T11:35:46.929Z,155
2017-03-27T11:36:55.903Z,155
2017-03-27T11:38:04.818Z,155
2017-03-27T11:39:13.732Z,155
2017-03-27T11:40:23.610Z,155
2017-03-27T11:41:32.558Z,155
2017-03-27T11:42:41.199Z,160
2017-03-27T11:43:50.469Z,160
2017-03-27T11:44:59.460Z,155
2017-03-27T11:46:08.466Z,155
2017-03-27T11:47:18.531Z,155
2017-03-27T11:48:27.147Z,160
2017-03-27T11:49:35.722Z,155
2017-03-27T11:50:44.742Z,155
2017-03-27T11:51:53.380Z,155
2017-03-27T11:53:02.298Z,160
2017-03-27T11:54:11.233Z,155
2017-03-27T11:55:20.456Z,165
2017-03-27T11:56:29.045Z,165
2017-03-27T11:57:37.957Z,160
2017-03-27T11:58:47.505Z,160
2017-03-27T11:59:56.731Z,160
2017-03-27T12:01:05.954Z,160
2017-03-27T12:02:14.919Z,160
2017-03-27T12:03:23.810Z,160
2017-03-27T12:04:32.731Z,155
2017-03-27T12:05:41.646Z,155
2017-03-27T12:06:50.228Z,160
2017-03-27T12:07:59.128Z,155
2017-03-27T12:09:07.710Z,155
2017-03-27T12:10:16.607Z,160
2017-03-27T12:11:25.505Z,155
2017-03-27T12:12:34.715Z,160
2017-03-27T12:13:43.300Z,160
2017-03-27T12:14:51.886Z,165
2017-03-27T12:16:01.116Z,160
2017-03-27T12:17:10.650Z,160
2017-03-27T12:18:19.859Z,160
2017-03-27T12:19:28.752Z,160
2017-03-27T12:20:37.643Z,160
2017-03-27T12:21:46.529Z,160
2017-03-27T12:22:55.139Z,160
2017-03-27T12:24:04.083Z,160
2017-03-27T12:25:13.330Z,160
2017-03-27T12:26:21.923Z,160
2017-03-27T12:27:31.446Z,160
2017-03-27T12:28:40.353Z,165
2017-03-27T12:29:49.242Z,165
2017-03-27T12:30:58.138Z,160
2017-03-27T12:32:07.216Z,160
2017-03-27T12:33:16.112Z,160
2017-03-27T12:34:24.999Z,160
2017-03-27T12:35:33.607Z,160
2017-03-27T12:36:42.499Z,160
2017-03-27T12:37:51.093Z,160
2017-03-27T12:39:00.349Z,160
2017-03-27T12:40:09.572Z,160
2017-03-27T12:41:18.484Z,165
2017-03-27T12:42:27.375Z,165
2017-03-27T12:43:36.323Z,165
2017-03-27T12:44:44.903Z,165
2017-03-27T12:45:54.437Z,165
2017-03-27T12:47:03.514Z,160
2017-03-27T12:48:12.398Z,160
2017-03-27T12:49:20.985Z,160
2017-03-27T12:50:29.567Z,160
2017-03-27T12:51:38.172Z,160
2017-03-27T12:52:47.063Z,160
2017-03-27T12:53:55.637Z,160
2017-03-27T12:55:04.873Z,155
2017-03-27T12:56:13.490Z,155
2017-03-27T12:57:22.099Z,155
2017-03-27T12:58:31.319Z,155
2017-03-27T12:59:40.246Z,155
2017-03-27T13:00:49.451Z,155
2017-03-27T13:01:58.372Z,155
2017-03-27T13:03:07.343Z,155
2017-03-27T13:04:15.926Z,155
2017-03-27T13:05:24.821Z,160
2017-03-27T13:06:34.041Z,155
2017-03-27T13:07:43.254Z,155
2017-03-27T13:08:52.152Z,155
2017-03-27T13:10:01.047Z,150
2017-03-27T13:11:10.266Z,150
2017-03-27T13:12:19.494Z,150
2017-03-27T13:13:28.397Z,150
2017-03-27T13:14:37.291Z,150
2017-03-27T13:15:47.135Z,150
2017-03-27T13:16:56.914Z,145
2017-03-27T13:18:06.326Z,150
2017-03-27T13:19:14.896Z,150
2017-03-27T13:20:23.804Z,150
2017-03-27T13:21:32.733Z,150
2017-03-27T13:22:41.328Z,150
2017-03-27T13:23:50.536Z,150
2017-03-27T13:24:59.552Z,150
2017-03-27T13:26:08.760Z,150
2017-03-27T13:27:17.342Z,150
2017-03-27T13:28:26.235Z,150
2017-03-27T13:29:35.126Z,145
2017-03-27T13:30:44.013Z,145
2017-03-27T13:31:52.904Z,140
2017-03-27T13:33:01.642Z,140
2017-03-27T13:34:10.856Z,145
2017-03-27T13:35:19.430Z,145
2017-03-27T13:36:28.484Z,145
2017-03-27T13:37:37.724Z,145
2017-03-27T13:38:46.303Z,145
2017-03-27T13:39:55.198Z,145
2017-03-27T13:41:04.099Z,145
2017-03-27T13:42:13.315Z,145
2017-03-27T13:43:22.206Z,145
2017-03-27T13:44:31.420Z,145
2017-03-27T13:45:39.995Z,140
2017-03-27T13:46:49.205Z,140
2017-03-27T13:47:57.777Z,140
2017-03-27T13:49:06.357Z,135
2017-03-27T13:50:15.262Z,140
2017-03-27T13:51:24.151Z,140
2017-03-27T13:52:33.357Z,140
2017-03-27T13:53:41.935Z,145
2017-03-27T13:54:50.829Z,145
2017-03-27T13:55:59.756Z,145
2017-03-27T13:57:08.644Z,140
2017-03-27T13:58:17.532Z,140
2017-03-27T13:59:26.422Z,140
2017-03-27T14:00:34.996Z,140
2017-03-27T14:01:43.564Z,140
2017-03-27T14:02:52.462Z,140
2017-03-27T14:04:01.621Z,140
2017-03-27T14:05:10.576Z,135
2017-03-27T14:06:19.819Z,135
2017-03-27T14:07:28.394Z,135
2017-03-27T14:08:37.291Z,135
2017-03-27T14:09:45.871Z,135
2017-03-27T14:10:54.789Z,135
2017-03-27T14:12:03.694Z,135
2017-03-27T14:13:12.598Z,130
2017-03-27T14:14:21.210Z,130
2017-03-27T14:15:32.211Z,130
2017-03-27T14:16:41.124Z,130
2017-03-27T14:17:49.699Z,130
2017-03-27T14:18:58.715Z,130
2017-03-27T14:20:07.921Z,130
2017-03-27T14:21:17.130Z,130
2017-03-27T14:22:25.734Z,130
2017-03-27T14:23:34.311Z,130
2017-03-27T14:24:42.880Z,130
2017-03-27T14:25:52.091Z,130
2017-03-27T14:27:01.301Z,130
2017-03-27T14:28:10.198Z,130
2017-03-27T14:29:19.892Z,130
2017-03-27T14:30:28.460Z,130
2017-03-27T14:31:37.356Z,130
2017-03-27T14:32:46.561Z,130
2017-03-27T14:33:55.450Z,130
2017-03-27T14:35:04.358Z,125
2017-03-27T14:36:13.251Z,125
2017-03-27T14:37:22.146Z,125
2017-03-27T14:38:31.039Z,125
2017-03-27T14:39:39.938Z,125
2017-03-27T14:40:48.512Z,130
2017-03-27T14:41:57.728Z,125
2017-03-27T14:43:06.622Z,125
2017-03-27T14:44:15.212Z,125
2017-03-27T14:45:23.789Z,125
2017-03-27T14:46:32.683Z,125
2017-03-27T14:47:41.587Z,125
2017-03-27T14:48:50.178Z,125
2017-03-27T14:49:59.071Z,125
2017-03-27T14:51:07.975Z,125
2017-03-27T14:52:17.190Z,125
2017-03-27T14:53:26.136Z,125
2017-03-27T14:54:35.548Z,125
2017-03-27T14:55:45.077Z,125
2017-03-27T14:56:53.977Z,125
2017-03-27T14:58:03.516Z,120
2017-03-27T14:59:12.416Z,120
2017-03-27T15:00:20.991Z,120
2017-03-27T15:01:30.210Z,120
2017-03-27T15:02:39.114Z,120
2017-03-27T15:03:48.958Z,120
2017-03-27T15:04:58.174Z,120
2017-03-27T15:06:07.087Z,125
2017-03-27T15:07:16.617Z,120
2017-03-27T15:08:25.831Z,120
2017-03-27T15:09:35.043Z,120
2017-03-27T15:10:43.618Z,120
2017-03-27T15:11:52.207Z,120
2017-03-27T15:13:01.744Z,120
2017-03-27T15:14:10.644Z,115
2017-03-27T15:15:19.536Z,115
2017-03-27T15:16:28.745Z,115
2017-03-27T15:17:37.325Z,115
2017-03-27T15:18:45.905Z,115
2017-03-27T15:19:55.065Z,115
2017-03-27T15:21:03.646Z,115
2017-03-27T15:22:12.859Z,115
2017-03-27T15:23:21.441Z,115
2017-03-27T15:30:51.936Z,115
2017-03-27T15:32:01.167Z,110
2017-03-27T15:38:08.809Z,115
2017-03-27T15:39:18.150Z,115
2017-03-27T15:40:27.379Z,115
2017-03-27T15:41:35.966Z,115
2017-03-27T15:42:44.875Z,115
2017-03-27T15:43:54.416Z,115
2017-03-27T15:45:03.631Z,110
2017-03-27T15:46:12.542Z,110
2017-03-27T15:47:21.778Z,110
2017-03-27T15:48:30.694Z,110
2017-03-27T15:49:39.619Z,110
2017-03-27T15:50:48.532Z,110
2017-03-27T15:51:57.967Z,110
2017-03-27T15:53:06.881Z,110
2017-03-27T15:54:16.131Z,110
2017-03-27T15:55:25.371Z,105
2017-03-27T15:56:34.929Z,105
2017-03-27T15:57:44.156Z,105
2017-03-27T15:58:53.413Z,105
2017-03-27T16:00:02.341Z,105
2017-03-27T16:01:12.206Z,105
2017-03-27T16:02:22.031Z,105
2017-03-27T16:03:30.943Z,105
2017-03-27T16:04:39.846Z,105
2017-03-27T16:05:49.088Z,100
2017-03-27T16:06:57.998Z,100
2017-03-27T16:08:06.965Z,100
2017-03-27T16:09:15.874Z,100
2017-03-27T16:10:24.795Z,100
2017-03-27T16:11:33.391Z,100
2017-03-27T16:12:42.006Z,100
2017-03-27T16:13:50.924Z,100
2017-03-27T16:14:59.853Z,95
2017-03-27T16:16:08.772Z,95
2017-03-27T16:17:17.361Z,95
2017-03-27T16:18:26.688Z,95
2017-03-27T16:19:35.914Z,95
2017-03-27T16:20:44.821Z,95
2017-03-27T16:21:54.048Z,95
2017-03-27T16:23:03.914Z,95
2017-03-27T16:24:13.137Z,95
2017-03-27T16:25:22.040Z,90